Time;durP1;ratioP1;P1;durP2;ratioP2;P2;SDS_P1;SDS_P2;PMS_P1;PMS_P2;Temp;Humidity;BMP_temperature;BMP_pressure;BME280_temperature;BME280_humidity;BME280_pressure;Samples;Min_cycle;Max_cycle;Signal;HPM_P1;HPM_P2
2023/08/27 00:00:43;;;;;;;4.00;1.88;;;21.40;99.90;;;;;;4992168;28;20091;-42
2023/08/27 00:03:08;;;;;;;2.78;1.63;;;21.50;99.90;;;;;;4991853;28;20074;-36
2023/08/27 00:05:40;;;;;;;3.85;1.85;;;21.40;99.90;;;;;;4992225;28;20042;-37
2023/08/27 00:08:05;;;;;;;2.33;1.70;;;21.40;99.90;;;;;;4990882;28;20030;-38
2023/08/27 00:10:31;;;;;;;3.17;1.48;;;21.40;99.90;;;;;;4991919;28;20034;-39
2023/08/27 00:12:57;;;;;;;2.25;1.50;;;21.40;99.90;;;;;;4992300;28;20026;-39
2023/08/27 00:15:22;;;;;;;3.05;1.73;;;21.40;99.90;;;;;;4992575;28;20019;-39
2023/08/27 00:17:48;;;;;;;3.40;1.83;;;21.40;99.90;;;;;;4992008;28;20570;-39
2023/08/27 00:20:14;;;;;;;2.13;1.58;;;21.40;99.90;;;;;;4991855;28;20365;-36
2023/08/27 00:22:39;;;;;;;2.80;1.73;;;21.40;99.90;;;;;;4991988;28;20089;-41
2023/08/27 00:25:06;;;;;;;3.55;1.80;;;21.40;99.90;;;;;;4991877;28;20031;-37
2023/08/27 00:27:33;;;;;;;4.32;1.60;;;21.40;99.90;;;;;;4991882;28;20534;-36
2023/08/27 00:29:59;;;;;;;1.88;1.50;;;21.40;99.90;;;;;;4991845;28;20045;-40
2023/08/27 00:32:28;;;;;;;3.17;1.55;;;21.40;99.90;;;;;;4992013;28;20030;-39
2023/08/27 00:34:54;;;;;;;2.80;1.50;;;21.40;99.90;;;;;;4991864;28;20018;-39
2023/08/27 00:37:20;;;;;;;2.72;1.52;;;21.40;99.90;;;;;;4991713;28;20567;-41
2023/08/27 00:39:45;;;;;;;4.05;1.38;;;21.40;99.90;;;;;;4991558;28;20073;-40
2023/08/27 00:42:11;;;;;;;2.38;1.50;;;21.40;99.90;;;;;;4991720;28;20085;-41
2023/08/27 00:44:37;;;;;;;3.58;1.50;;;21.40;99.90;;;;;;4991984;28;20260;-42
2023/08/27 00:47:04;;;;;;;3.40;1.40;;;21.40;99.90;;;;;;4991729;28;20025;-40
2023/08/27 00:49:30;;;;;;;3.95;1.60;;;21.40;99.90;;;;;;4991467;28;20019;-40
2023/08/27 00:51:56;;;;;;;4.03;1.67;;;21.40;99.90;;;;;;4992002;28;20485;-43
2023/08/27 00:54:23;;;;;;;2.25;1.50;;;21.40;99.90;;;;;;4991430;28;20026;-39
2023/08/27 00:56:50;;;;;;;3.10;1.63;;;21.40;99.90;;;;;;4991694;28;20076;-41
2023/08/27 00:59:16;;;;;;;3.10;1.50;;;21.40;99.90;;;;;;4991299;28;20040;-39
2023/08/27 01:01:43;;;;;;;2.38;1.58;;;21.40;99.90;;;;;;4991654;28;20019;-39
2023/08/27 01:04:09;;;;;;;2.20;1.40;;;21.40;99.90;;;;;;4991517;28;20022;-40
2023/08/27 01:06:34;;;;;;;1.63;1.48;;;21.40;99.90;;;;;;4991521;28;20053;-43
2023/08/27 01:09:20;;;;;;;3.33;1.65;;;21.40;99.90;;;;;;4991294;28;20133;-40
2023/08/27 01:12:09;;;;;;;2.38;1.40;;;21.40;99.90;;;;;;4991679;28;20138;-43
2023/08/27 01:14:36;;;;;;;6.40;1.60;;;21.40;99.90;;;;;;4993664;28;20030;-38
2023/08/27 01:17:07;;;;;;;2.53;1.63;;;21.40;99.90;;;;;;4995047;28;20038;-39
2023/08/27 01:19:34;;;;;;;3.75;1.70;;;21.40;99.90;;;;;;4994966;28;20041;-38
2023/08/27 01:21:59;;;;;;;3.55;1.48;;;21.40;99.90;;;;;;4995427;28;20089;-39
2023/08/27 01:24:25;;;;;;;2.50;1.40;;;21.40;99.90;;;;;;4995076;28;20493;-40
2023/08/27 01:27:07;;;;;;;2.67;1.50;;;21.40;99.90;;;;;;4995089;28;20077;-39
2023/08/27 01:29:48;;;;;;;1.98;1.38;;;21.40;99.90;;;;;;4994703;28;20022;-39
2023/08/27 01:32:25;;;;;;;1.85;1.35;;;21.40;99.90;;;;;;4995390;28;20027;-42
2023/08/27 01:34:53;;;;;;;2.30;1.67;;;21.40;99.90;;;;;;4995305;28;20472;-37
2023/08/27 01:37:19;;;;;;;3.67;1.50;;;21.40;99.90;;;;;;4996687;28;20053;-42
2023/08/27 01:39:44;;;;;;;2.72;1.50;;;21.40;99.90;;;;;;4994663;28;20026;-36
2023/08/27 01:42:12;;;;;;;4.35;1.65;;;21.40;99.90;;;;;;4995167;28;20026;-36
2023/08/27 01:44:37;;;;;;;1.60;1.48;;;21.40;99.90;;;;;;4994698;28;20022;-39
2023/08/27 01:47:05;;;;;;;2.88;1.60;;;21.40;99.90;;;;;;4994611;28;20532;-39
2023/08/27 01:49:31;;;;;;;2.13;1.30;;;21.40;99.90;;;;;;4994547;28;20026;-40
2023/08/27 01:51:57;;;;;;;2.70;1.70;;;21.40;99.90;;;;;;4994566;28;20077;-39
2023/08/27 01:54:22;;;;;;;1.80;1.60;;;21.40;99.90;;;;;;4994427;28;20034;-40
2023/08/27 01:56:48;;;;;;;3.38;1.65;;;21.40;99.90;;;;;;4993159;28;20077;-46
2023/08/27 01:59:13;;;;;;;1.63;1.48;;;21.40;99.90;;;;;;4994487;28;20354;-41
2023/08/27 02:01:39;;;;;;;1.75;1.40;;;21.40;99.90;;;;;;4994406;28;20049;-40
2023/08/27 02:04:05;;;;;;;2.05;1.40;;;21.40;99.90;;;;;;4994339;28;20041;-41
2023/08/27 02:06:30;;;;;;;2.03;1.52;;;21.40;99.90;;;;;;4994356;28;20065;-39
2023/08/27 02:08:56;;;;;;;3.47;1.42;;;21.30;99.90;;;;;;4994064;28;20035;-42
2023/08/27 02:11:22;;;;;;;2.17;1.40;;;21.40;99.90;;;;;;4994106;28;20061;-41
2023/08/27 02:13:47;;;;;;;1.67;1.20;;;21.40;99.90;;;;;;4994085;28;20038;-40
2023/08/27 02:16:13;;;;;;;2.28;1.55;;;21.40;99.90;;;;;;4994130;28;20073;-40
2023/08/27 02:18:39;;;;;;;7.40;1.50;;;21.40;99.90;;;;;;4993977;28;20110;-39
2023/08/27 02:21:04;;;;;;;4.10;1.55;;;21.40;99.90;;;;;;4993935;28;20026;-38
2023/08/27 02:23:30;;;;;;;2.70;1.60;;;21.40;99.90;;;;;;4994086;28;20105;-37
2023/08/27 02:25:55;;;;;;;2.55;1.60;;;21.40;99.90;;;;;;4993579;28;20062;-42
2023/08/27 02:28:21;;;;;;;2.05;1.60;;;21.40;99.90;;;;;;4993849;28;20030;-41
2023/08/27 02:30:53;;;;;;;3.28;1.58;;;21.30;99.90;;;;;;4993923;28;20487;-37
2023/08/27 02:33:18;;;;;;;1.92;1.48;;;21.40;99.90;;;;;;4993671;28;20400;-38
2023/08/27 02:35:44;;;;;;;1.60;1.20;;;21.30;99.90;;;;;;4993785;28;20021;-41
2023/08/27 02:38:10;;;;;;;3.72;1.45;;;21.30;99.90;;;;;;4993583;28;20049;-38
2023/08/27 02:40:35;;;;;;;2.05;1.60;;;21.30;99.90;;;;;;4994848;28;20029;-36
2023/08/27 02:43:03;;;;;;;1.50;1.30;;;21.30;99.90;;;;;;4996014;28;20022;-37
2023/08/27 02:45:28;;;;;;;4.72;1.25;;;21.30;99.90;;;;;;4994164;28;20109;-41
2023/08/27 02:47:56;;;;;;;3.05;1.33;;;21.30;99.90;;;;;;4995082;28;20249;-42
2023/08/27 02:50:26;;;;;;;2.10;1.40;;;21.30;99.90;;;;;;4995021;28;20065;-37
2023/08/27 02:52:52;;;;;;;2.40;1.50;;;21.30;99.90;;;;;;4994271;28;20022;-40
2023/08/27 02:55:17;;;;;;;2.95;1.65;;;21.30;99.90;;;;;;4993318;28;20443;-40
2023/08/27 02:57:43;;;;;;;2.90;1.45;;;21.40;99.90;;;;;;4993306;28;20070;-42
2023/08/27 03:00:09;;;;;;;2.00;1.50;;;21.30;99.90;;;;;;4993102;28;20117;-43
2023/08/27 03:02:34;;;;;;;2.17;1.50;;;21.30;99.90;;;;;;4993256;28;20436;-38
2023/08/27 03:05:04;;;;;;;2.25;1.20;;;21.30;99.90;;;;;;4993181;28;20025;-39
2023/08/27 03:07:30;;;;;;;2.42;1.40;;;21.30;99.90;;;;;;4993026;28;20037;-42
2023/08/27 03:09:56;;;;;;;3.30;1.45;;;21.30;99.90;;;;;;4992891;28;20471;-37
2023/08/27 03:12:22;;;;;;;2.20;1.20;;;21.30;99.90;;;;;;4993217;28;20023;-39
2023/08/27 03:14:47;;;;;;;4.22;1.40;;;21.30;99.90;;;;;;4993018;28;20023;-35
2023/08/27 03:17:13;;;;;;;1.40;1.30;;;21.30;99.90;;;;;;4993014;28;20037;-41
2023/08/27 03:19:39;;;;;;;2.10;1.35;;;21.30;99.90;;;;;;4992753;28;20113;-41
2023/08/27 03:22:05;;;;;;;2.00;1.55;;;21.30;99.90;;;;;;4992850;28;20157;-39
2023/08/27 03:24:30;;;;;;;2.28;1.52;;;21.30;99.90;;;;;;4992853;28;20019;-40
2023/08/27 03:26:56;;;;;;;1.52;1.27;;;21.30;99.90;;;;;;4992896;28;20495;-39
2023/08/27 03:29:22;;;;;;;2.35;1.23;;;21.30;99.90;;;;;;4992480;28;20033;-40
2023/08/27 03:31:47;;;;;;;1.50;1.08;;;21.30;99.90;;;;;;4992692;28;20026;-36
2023/08/27 03:34:13;;;;;;;2.08;1.20;;;21.30;99.90;;;;;;4991351;28;20030;-40
2023/08/27 03:36:40;;;;;;;1.55;1.10;;;21.30;99.90;;;;;;4992102;28;20068;-36
2023/08/27 03:39:05;;;;;;;2.22;1.27;;;21.30;99.90;;;;;;4993149;28;20030;-40
2023/08/27 03:41:31;;;;;;;1.92;1.08;;;21.30;99.90;;;;;;4992597;28;20027;-40
2023/08/27 03:43:57;;;;;;;2.08;1.30;;;21.30;99.90;;;;;;4992529;28;20026;-39
2023/08/27 03:46:22;;;;;;;1.30;1.10;;;21.30;99.90;;;;;;4992611;28;20027;-36
2023/08/27 03:48:48;;;;;;;2.95;1.15;;;21.30;99.90;;;;;;4992287;28;20065;-36
2023/08/27 03:51:14;;;;;;;2.95;1.35;;;21.30;99.90;;;;;;4992370;28;20080;-41
2023/08/27 03:53:40;;;;;;;4.47;1.45;;;21.30;99.90;;;;;;4992290;28;20034;-40
2023/08/27 03:56:06;;;;;;;3.75;1.20;;;21.30;99.90;;;;;;4992374;28;20026;-39
2023/08/27 03:58:32;;;;;;;2.42;1.15;;;21.30;99.90;;;;;;4992191;28;20022;-39
2023/08/27 04:00:58;;;;;;;3.08;1.30;;;21.30;99.90;;;;;;4992124;28;20057;-36
2023/08/27 04:03:23;;;;;;;2.08;1.45;;;21.30;99.90;;;;;;4990973;28;20054;-40
2023/08/27 04:05:49;;;;;;;2.45;1.15;;;21.30;99.90;;;;;;4992131;28;20033;-36
2023/08/27 04:08:18;;;;;;;2.22;1.10;;;21.20;99.90;;;;;;4992050;28;20034;-37
2023/08/27 04:10:53;;;;;;;2.83;1.27;;;21.30;99.90;;;;;;4991954;28;20504;-37
2023/08/27 04:13:19;;;;;;;3.33;1.48;;;21.30;99.90;;;;;;4992001;28;20072;-37
2023/08/27 04:16:00;;;;;;;1.83;1.30;;;21.20;99.90;;;;;;4991993;28;20058;-37
2023/08/27 04:18:27;;;;;;;1.65;1.15;;;21.30;99.90;;;;;;4991850;28;20022;-40
2023/08/27 04:20:53;;;;;;;2.22;1.63;;;21.30;99.90;;;;;;4991816;28;20026;-40
2023/08/27 04:23:18;;;;;;;3.83;1.50;;;21.30;99.90;;;;;;4990689;28;20060;-38
2023/08/27 04:25:44;;;;;;;1.60;1.35;;;21.30;99.90;;;;;;4992015;28;20077;-39
2023/08/27 04:28:10;;;;;;;2.72;1.48;;;21.30;99.90;;;;;;4991890;28;20031;-39
2023/08/27 04:30:36;;;;;;;1.73;1.20;;;21.30;99.90;;;;;;4991695;28;20074;-38
2023/08/27 04:33:04;;;;;;;2.40;1.60;;;21.30;99.90;;;;;;4991722;28;20049;-39
2023/08/27 04:35:29;;;;;;;2.08;1.30;;;21.30;99.90;;;;;;4991887;28;20022;-36
2023/08/27 04:37:55;;;;;;;2.72;1.70;;;21.30;99.90;;;;;;4991665;28;20042;-39
2023/08/27 04:40:21;;;;;;;2.28;1.20;;;21.30;99.90;;;;;;4991968;28;20026;-39
2023/08/27 04:42:46;;;;;;;1.80;1.17;;;21.20;99.90;;;;;;4991793;28;20031;-43
2023/08/27 04:45:12;;;;;;;2.65;1.15;;;21.20;99.90;;;;;;4991685;28;20026;-36
2023/08/27 04:47:38;;;;;;;4.63;1.48;;;21.30;99.90;;;;;;4992313;28;20022;-41
2023/08/27 04:50:05;;;;;;;1.33;1.10;;;21.20;99.90;;;;;;4995585;28;20041;-36
2023/08/27 04:52:31;;;;;;;2.70;1.05;;;21.30;99.90;;;;;;4995712;28;20166;-39
2023/08/27 04:54:56;;;;;;;4.28;1.40;;;21.20;99.90;;;;;;4995702;28;20105;-36
2023/08/27 04:57:22;;;;;;;1.50;1.13;;;21.30;99.90;;;;;;4995885;28;20030;-39
2023/08/27 04:59:48;;;;;;;1.08;0.98;;;21.30;99.90;;;;;;4995366;28;20018;-41
2023/08/27 05:02:14;;;;;;;2.80;1.27;;;21.30;99.90;;;;;;4995425;28;20422;-39
2023/08/27 05:04:40;;;;;;;2.95;1.38;;;21.30;99.90;;;;;;4995520;28;20029;-36
2023/08/27 05:07:05;;;;;;;1.25;1.00;;;21.30;99.90;;;;;;4995434;28;20027;-41
2023/08/27 05:09:31;;;;;;;2.30;1.02;;;21.20;99.90;;;;;;4995407;28;20062;-40
2023/08/27 05:11:56;;;;;;;1.83;1.30;;;21.20;99.90;;;;;;4995365;28;20031;-39
2023/08/27 05:14:22;;;;;;;2.75;1.20;;;21.20;99.90;;;;;;4995208;28;20092;-42
2023/08/27 05:16:48;;;;;;;2.78;1.20;;;21.20;99.90;;;;;;4995188;28;20034;-42
2023/08/27 05:19:13;;;;;;;2.95;1.55;;;21.20;99.90;;;;;;4994967;28;20090;-38
2023/08/27 05:21:40;;;;;;;2.28;1.35;;;21.20;99.90;;;;;;4995233;28;20076;-40
2023/08/27 05:24:06;;;;;;;1.80;1.20;;;21.20;99.90;;;;;;4995267;28;20084;-39
2023/08/27 05:26:31;;;;;;;2.92;1.30;;;21.20;99.90;;;;;;4995094;28;20018;-39
2023/08/27 05:28:57;;;;;;;2.88;1.50;;;21.20;99.90;;;;;;4994772;28;20026;-41
2023/08/27 05:31:23;;;;;;;1.90;1.17;;;21.20;99.90;;;;;;4994891;28;20026;-36
2023/08/27 05:33:48;;;;;;;2.22;1.20;;;21.20;99.90;;;;;;4994877;28;20030;-38
2023/08/27 05:36:15;;;;;;;1.30;1.10;;;21.20;99.90;;;;;;4995018;28;20023;-40
2023/08/27 05:38:41;;;;;;;1.60;1.13;;;21.20;99.90;;;;;;4994632;28;20534;-40
2023/08/27 05:41:06;;;;;;;1.55;1.10;;;21.20;99.90;;;;;;4994681;28;20054;-39
2023/08/27 05:43:32;;;;;;;2.85;1.20;;;21.20;99.90;;;;;;4994702;28;20027;-42
2023/08/27 05:45:57;;;;;;;2.15;1.23;;;21.20;99.90;;;;;;4994615;28;20488;-39
2023/08/27 05:48:23;;;;;;;2.00;1.10;;;21.20;99.90;;;;;;4994575;28;20473;-39
2023/08/27 05:50:49;;;;;;;2.42;1.10;;;21.20;99.90;;;;;;4994600;28;20035;-36
2023/08/27 05:53:15;;;;;;;2.22;1.30;;;21.20;99.90;;;;;;4994507;28;20173;-37
2023/08/27 05:55:43;;;;;;;1.50;1.05;;;21.20;99.90;;;;;;4994599;28;20022;-37
2023/08/27 05:58:08;;;;;;;1.33;1.05;;;21.20;99.90;;;;;;4994427;28;20376;-39
2023/08/27 06:00:34;;;;;;;2.50;1.15;;;21.20;99.90;;;;;;4993507;28;20103;-40
2023/08/27 06:03:00;;;;;;;3.15;1.35;;;21.20;99.90;;;;;;4994449;28;20028;-39
2023/08/27 06:05:25;;;;;;;2.08;1.25;;;21.20;99.90;;;;;;4994405;28;20514;-39
2023/08/27 06:07:51;;;;;;;1.35;0.90;;;21.20;99.90;;;;;;4994254;28;20034;-39
2023/08/27 06:10:17;;;;;;;1.27;0.98;;;21.20;99.90;;;;;;4994092;28;20098;-39
2023/08/27 06:12:42;;;;;;;1.60;1.10;;;21.20;99.90;;;;;;4994138;28;20028;-39
2023/08/27 06:15:08;;;;;;;2.20;1.02;;;21.20;99.90;;;;;;4992830;28;20361;-41
2023/08/27 06:17:34;;;;;;;1.33;0.90;;;21.20;99.90;;;;;;4994061;28;20065;-37
2023/08/27 06:19:59;;;;;;;2.20;1.00;;;21.20;99.90;;;;;;4994075;28;20022;-39
2023/08/27 06:22:25;;;;;;;2.63;1.15;;;21.20;99.90;;;;;;4994065;28;20507;-41
2023/08/27 06:24:51;;;;;;;1.98;1.25;;;21.20;99.90;;;;;;4994001;28;20022;-41
2023/08/27 06:27:16;;;;;;;1.42;1.00;;;21.10;99.90;;;;;;4993832;28;20472;-39
2023/08/27 06:29:45;;;;;;;2.38;0.90;;;21.20;99.90;;;;;;4993565;28;20022;-39
2023/08/27 06:32:10;;;;;;;1.77;1.13;;;21.20;99.90;;;;;;4994085;28;20019;-39
2023/08/27 06:34:36;;;;;;;3.67;1.10;;;21.20;99.90;;;;;;4992416;28;20042;-41
2023/08/27 06:37:02;;;;;;;1.95;1.00;;;21.20;99.90;;;;;;4993631;28;20081;-39
2023/08/27 06:39:27;;;;;;;1.30;0.90;;;21.20;99.90;;;;;;4993535;28;20043;-41
2023/08/27 06:41:53;;;;;;;1.73;1.13;;;21.20;99.90;;;;;;4993624;28;20026;-43
2023/08/27 06:44:19;;;;;;;1.25;0.93;;;21.20;99.90;;;;;;4993533;28;20109;-38
2023/08/27 06:46:45;;;;;;;1.52;1.08;;;21.20;99.90;;;;;;4993639;28;20523;-41
2023/08/27 06:49:11;;;;;;;1.45;0.85;;;21.20;99.90;;;;;;4993289;28;20165;-39
2023/08/27 06:51:36;;;;;;;1.70;1.02;;;21.10;99.90;;;;;;4993509;28;20037;-40
2023/08/27 06:54:03;;;;;;;1.70;0.95;;;21.20;99.90;;;;;;4993368;28;20065;-40
2023/08/27 06:56:29;;;;;;;1.77;1.20;;;21.20;99.90;;;;;;4993415;28;20025;-39
2023/08/27 06:58:55;;;;;;;0.90;0.80;;;21.20;99.90;;;;;;4991838;28;20034;-41
2023/08/27 07:01:20;;;;;;;1.35;0.60;;;21.20;99.90;;;;;;4993337;28;20101;-40
2023/08/27 07:03:46;;;;;;;1.40;0.90;;;21.10;99.90;;;;;;4993343;28;20061;-40
2023/08/27 07:06:12;;;;;;;1.00;0.80;;;21.20;99.90;;;;;;4993313;28;20029;-40
2023/08/27 07:08:37;;;;;;;2.47;1.23;;;21.20;99.90;;;;;;4993193;28;20062;-39
2023/08/27 07:11:03;;;;;;;1.33;0.80;;;21.20;99.90;;;;;;4992231;28;20027;-37
2023/08/27 07:13:29;;;;;;;1.33;0.95;;;21.20;99.90;;;;;;4992708;28;20023;-36
2023/08/27 07:15:57;;;;;;;3.30;1.10;;;21.10;99.90;;;;;;4993201;28;20275;-43
2023/08/27 07:18:22;;;;;;;2.03;0.98;;;21.10;99.90;;;;;;4992930;28;20022;-38
2023/08/27 07:20:48;;;;;;;1.20;0.90;;;21.20;99.90;;;;;;4992791;28;20018;-39
2023/08/27 07:23:15;;;;;;;1.55;0.80;;;21.20;99.90;;;;;;4992907;28;20476;-39
2023/08/27 07:25:41;;;;;;;1.23;0.85;;;21.20;99.90;;;;;;4992864;28;20030;-39
2023/08/27 07:28:07;;;;;;;1.92;1.13;;;21.20;99.90;;;;;;4992641;28;20080;-39
2023/08/27 07:30:33;;;;;;;0.98;0.70;;;21.10;99.90;;;;;;4992542;28;20034;-41
2023/08/27 07:32:58;;;;;;;4.32;1.00;;;21.10;99.90;;;;;;4992661;28;20050;-41
2023/08/27 07:35:24;;;;;;;3.30;1.10;;;21.10;99.90;;;;;;4992790;28;20480;-39
2023/08/27 07:37:50;;;;;;;4.35;1.08;;;20.90;99.90;;;;;;4992741;28;20106;-47
2023/08/27 07:40:16;;;;;;;1.45;1.17;;;20.80;99.90;;;;;;4992451;28;20061;-45
2023/08/27 07:42:42;;;;;;;4.38;0.95;;;20.80;99.90;;;;;;4992606;28;20061;-39
2023/08/27 07:45:08;;;;;;;4.10;1.30;;;20.80;99.90;;;;;;4991769;28;20029;-43
2023/08/27 07:47:34;;;;;;;2.35;1.00;;;20.80;99.90;;;;;;4975226;28;20128;-44
2023/08/27 07:49:59;;;;;;;1.77;0.90;;;20.90;99.90;;;;;;4992291;28;20493;-39
2023/08/27 07:52:25;;;;;;;1.88;0.90;;;20.90;99.90;;;;;;4992368;28;20104;-39
2023/08/27 07:54:51;;;;;;;5.22;1.10;;;20.90;99.90;;;;;;4992360;28;20022;-43
2023/08/27 07:57:16;;;;;;;2.45;0.80;;;20.90;99.90;;;;;;4992217;28;20472;-41
2023/08/27 07:59:43;;;;;;;3.63;1.23;;;21.00;99.90;;;;;;4990846;28;20037;-41
2023/08/27 08:02:09;;;;;;;4.28;1.00;;;21.00;99.90;;;;;;4992478;28;20030;-39
2023/08/27 08:04:34;;;;;;;3.78;1.20;;;21.00;99.90;;;;;;4992204;28;20030;-39
2023/08/27 08:07:00;;;;;;;1.92;1.08;;;21.00;99.90;;;;;;4992495;28;20058;-39
2023/08/27 08:09:25;;;;;;;2.85;1.10;;;21.00;99.90;;;;;;4991926;28;20028;-38
2023/08/27 08:11:51;;;;;;;1.63;0.85;;;21.00;99.90;;;;;;4992079;28;20472;-39
2023/08/27 08:14:17;;;;;;;2.00;1.00;;;21.00;99.90;;;;;;4992063;28;20073;-35
2023/08/27 08:16:43;;;;;;;2.25;1.10;;;21.00;99.90;;;;;;4992271;28;20532;-35
2023/08/27 08:19:09;;;;;;;1.33;0.90;;;21.00;99.90;;;;;;4991914;28;20026;-35
2023/08/27 08:21:36;;;;;;;1.58;1.08;;;21.10;99.90;;;;;;4992084;28;20030;-36
2023/08/27 08:24:01;;;;;;;1.75;0.93;;;21.00;99.90;;;;;;4991683;28;20076;-35
2023/08/27 08:26:27;;;;;;;1.63;0.88;;;20.90;99.90;;;;;;4990594;28;20033;-38
2023/08/27 08:28:53;;;;;;;2.03;1.33;;;20.80;99.90;;;;;;4991820;28;20507;-36
2023/08/27 08:31:19;;;;;;;6.70;1.17;;;20.70;99.90;;;;;;4992159;28;20455;-35
2023/08/27 08:33:45;;;;;;;4.68;1.38;;;20.80;99.90;;;;;;4992114;28;20026;-39
2023/08/27 08:36:10;;;;;;;4.05;1.00;;;20.50;99.90;;;;;;4991945;28;20022;-36
2023/08/27 08:38:36;;;;;;;2.55;1.08;;;20.50;99.90;;;;;;4991686;28;20042;-38
2023/08/27 08:41:03;;;;;;;1.65;1.08;;;20.50;99.90;;;;;;4991545;28;20034;-37
2023/08/27 08:43:51;;;;;;;3.22;1.13;;;20.60;99.90;;;;;;4991824;28;20036;-38
2023/08/27 08:46:18;;;;;;;1.80;1.08;;;20.60;99.90;;;;;;4991875;28;20562;-37
2023/08/27 08:48:49;;;;;;;3.00;1.20;;;20.70;99.90;;;;;;4991652;28;20037;-36
2023/08/27 08:51:19;;;;;;;1.88;1.10;;;20.80;99.90;;;;;;4991760;28;20033;-41
2023/08/27 08:53:49;;;;;;;3.42;1.05;;;20.80;99.90;;;;;;4991592;28;20018;-41
2023/08/27 08:56:26;;;;;;;4.78;1.10;;;20.80;99.90;;;;;;4991830;28;20026;-37
2023/08/27 08:58:56;;;;;;;2.08;1.10;;;20.90;99.90;;;;;;4991495;28;20034;-39
2023/08/27 09:01:23;;;;;;;3.08;1.20;;;20.80;99.90;;;;;;4991633;28;20027;-41
2023/08/27 09:03:50;;;;;;;2.30;1.13;;;20.90;99.90;;;;;;4991547;28;20023;-36
2023/08/27 09:06:18;;;;;;;2.42;0.98;;;21.00;99.90;;;;;;4991980;28;20033;-42
2023/08/27 09:08:45;;;;;;;2.75;1.00;;;20.90;99.90;;;;;;4991557;28;20655;-37
2023/08/27 09:11:12;;;;;;;2.22;0.88;;;21.00;99.90;;;;;;4991499;28;20035;-40
2023/08/27 09:13:38;;;;;;;1.52;0.90;;;21.00;99.90;;;;;;4990203;28;20026;-39
2023/08/27 09:16:05;;;;;;;3.78;1.20;;;21.00;99.90;;;;;;4991591;28;20038;-39
2023/08/27 09:18:31;;;;;;;3.35;1.20;;;21.00;99.90;;;;;;4991820;28;20093;-47
2023/08/27 09:20:59;;;;;;;38.53;2.33;;;21.00;99.90;;;;;;4991293;28;20105;-41
2023/08/27 09:23:25;;;;;;;3.67;1.40;;;21.00;99.90;;;;;;4991367;28;20110;-38
2023/08/27 09:25:58;;;;;;;2.75;1.10;;;20.90;99.90;;;;;;4991505;28;20113;-43
2023/08/27 09:28:24;;;;;;;3.70;1.08;;;20.80;99.90;;;;;;4991514;28;20133;-35
2023/08/27 09:30:51;;;;;;;2.08;1.20;;;20.80;99.90;;;;;;4991284;28;20471;-34
2023/08/27 09:33:17;;;;;;;3.35;1.25;;;20.70;99.90;;;;;;4991364;28;20035;-34
2023/08/27 09:35:43;;;;;;;2.55;1.10;;;20.70;99.90;;;;;;4993554;28;20022;-34
2023/08/27 09:38:14;;;;;;;6.07;1.40;;;20.80;99.90;;;;;;4995196;28;20030;-39
2023/08/27 09:40:40;;;;;;;4.68;1.40;;;20.80;99.90;;;;;;4994671;28;20034;-39
2023/08/27 09:43:08;;;;;;;2.60;1.27;;;20.90;99.90;;;;;;4994755;28;20096;-39
2023/08/27 09:45:35;;;;;;;3.15;1.23;;;20.90;99.90;;;;;;4994708;28;20022;-40
2023/08/27 09:48:00;;;;;;;4.82;1.13;;;21.00;99.90;;;;;;4994649;28;20061;-39
2023/08/27 09:50:29;;;;;;;3.13;1.10;;;21.00;99.90;;;;;;4994489;28;20073;-37
2023/08/27 09:53:05;;;;;;;2.35;1.10;;;21.00;99.90;;;;;;4994578;28;20031;-35
2023/08/27 09:55:33;;;;;;;4.85;1.17;;;21.00;99.90;;;;;;4994626;28;20030;-35
2023/08/27 09:57:59;;;;;;;2.97;1.27;;;21.00;99.90;;;;;;4994396;28;20033;-36
2023/08/27 10:00:27;;;;;;;1.92;1.33;;;21.00;99.90;;;;;;4994302;28;20022;-36
2023/08/27 10:02:53;;;;;;;2.33;0.90;;;21.10;99.90;;;;;;4994464;28;20100;-36
2023/08/27 10:05:31;;;;;;;1.90;1.10;;;21.10;99.90;;;;;;4994393;28;20033;-40
2023/08/27 10:08:05;;;;;;;1.98;1.15;;;21.10;99.90;;;;;;4995367;28;20027;-37
2023/08/27 10:10:36;;;;;;;3.22;1.30;;;21.10;99.90;;;;;;4994067;28;20018;-36
2023/08/27 10:13:03;;;;;;;1.55;1.00;;;21.20;99.90;;;;;;4994502;28;20034;-36
2023/08/27 10:15:29;;;;;;;3.35;0.98;;;21.10;99.90;;;;;;4994161;28;20030;-34
2023/08/27 10:17:56;;;;;;;2.28;1.10;;;21.20;99.90;;;;;;4994112;28;20113;-35
2023/08/27 10:20:22;;;;;;;3.03;1.20;;;21.20;99.90;;;;;;4993934;28;20509;-35
2023/08/27 10:22:49;;;;;;;1.40;1.00;;;21.10;99.90;;;;;;4994069;28;20041;-36
2023/08/27 10:25:17;;;;;;;2.65;0.90;;;21.20;99.90;;;;;;4993993;28;20106;-35
2023/08/27 10:27:48;;;;;;;2.33;1.10;;;21.20;99.90;;;;;;4993955;28;20033;-35
2023/08/27 10:30:16;;;;;;;1.40;1.10;;;21.20;99.90;;;;;;4993996;28;20109;-34
2023/08/27 10:32:42;;;;;;;1.83;1.00;;;21.20;99.90;;;;;;4994044;28;20077;-35
2023/08/27 10:35:09;;;;;;;2.10;0.93;;;21.30;99.90;;;;;;4994175;28;20432;-36
2023/08/27 10:37:43;;;;;;;1.48;0.82;;;21.20;99.90;;;;;;4993953;28;20036;-34
2023/08/27 10:40:12;;;;;;;1.42;1.00;;;21.30;99.90;;;;;;4993942;28;20103;-35
2023/08/27 10:42:39;;;;;;;2.33;1.02;;;21.20;99.90;;;;;;4992980;28;20038;-34
2023/08/27 10:45:12;;;;;;;1.77;1.17;;;21.20;99.90;;;;;;4993708;28;20031;-35
2023/08/27 10:47:38;;;;;;;2.13;0.80;;;21.20;99.90;;;;;;4993667;28;20022;-40
2023/08/27 10:50:06;;;;;;;1.58;1.10;;;21.30;99.90;;;;;;4993757;28;20038;-34
2023/08/27 10:52:52;;;;;;;1.40;0.93;;;21.20;99.90;;;;;;4992416;28;20033;-39
2023/08/27 10:55:32;;;;;;;2.25;0.95;;;21.30;99.90;;;;;;4993501;28;20022;-34
2023/08/27 10:58:15;;;;;;;1.17;0.80;;;21.20;99.90;;;;;;4993451;28;20018;-34
2023/08/27 11:01:10;;;;;;;1.20;1.00;;;21.30;99.90;;;;;;4993353;28;20384;-35
2023/08/27 11:03:59;;;;;;;1.92;1.23;;;21.30;99.90;;;;;;4984885;28;20042;-38
2023/08/27 11:06:40;;;;;;;2.45;0.95;;;21.20;99.90;;;;;;4993277;28;20031;-37
2023/08/27 11:09:14;;;;;;;1.65;1.17;;;21.20;99.90;;;;;;4993596;28;20045;-37
2023/08/27 11:11:43;;;;;;;6.35;1.50;;;21.20;99.90;;;;;;4990363;28;20034;-44
2023/08/27 11:14:09;;;;;;;1.80;1.17;;;21.20;99.90;;;;;;4993160;28;20049;-39
2023/08/27 11:17:00;;;;;;;3.28;1.20;;;21.10;99.90;;;;;;4992980;28;20029;-38
2023/08/27 11:19:27;;;;;;;4.10;1.08;;;21.10;99.90;;;;;;4991412;28;20384;-40
2023/08/27 11:22:13;;;;;;;4.63;1.30;;;21.00;99.90;;;;;;4992937;28;20484;-39
2023/08/27 11:24:53;;;;;;;4.80;1.30;;;21.00;99.90;;;;;;4992934;28;20033;-42
2023/08/27 11:27:23;;;;;;;2.58;1.10;;;21.00;99.90;;;;;;4992920;28;20022;-38
2023/08/27 11:29:51;;;;;;;2.08;1.20;;;21.10;99.90;;;;;;4993113;28;20030;-39
2023/08/27 11:32:19;;;;;;;2.75;1.13;;;21.00;99.90;;;;;;4993141;28;20025;-39
2023/08/27 11:34:48;;;;;;;2.50;1.10;;;21.10;99.90;;;;;;4992672;28;20084;-38
2023/08/27 11:37:14;;;;;;;2.13;1.20;;;21.10;99.90;;;;;;4992557;28;20034;-38
2023/08/27 11:39:40;;;;;;;2.65;1.10;;;21.10;99.90;;;;;;4992497;28;20142;-38
2023/08/27 11:42:10;;;;;;;1.40;1.02;;;21.10;99.90;;;;;;4992556;28;20617;-38
2023/08/27 11:44:44;;;;;;;2.30;1.20;;;21.10;99.90;;;;;;4992595;28;20121;-38
2023/08/27 11:47:10;;;;;;;2.00;1.20;;;21.10;99.90;;;;;;4992450;28;20030;-40
2023/08/27 11:49:35;;;;;;;2.53;1.05;;;21.20;99.90;;;;;;4992266;28;20031;-38
2023/08/27 11:52:01;;;;;;;2.63;1.13;;;21.10;99.90;;;;;;4992539;28;20547;-38
2023/08/27 11:54:32;;;;;;;2.33;1.00;;;21.20;99.90;;;;;;4992425;28;20038;-38
2023/08/27 11:56:58;;;;;;;2.38;1.17;;;21.20;99.90;;;;;;4992099;28;20135;-39
2023/08/27 11:59:27;;;;;;;5.38;1.00;;;21.20;99.90;;;;;;4992002;28;20077;-38
2023/08/27 12:01:57;;;;;;;3.15;1.10;;;21.20;99.90;;;;;;4992372;28;20081;-38
2023/08/27 12:04:29;;;;;;;1.50;0.95;;;21.20;99.90;;;;;;4992265;28;20121;-38
2023/08/27 12:06:59;;;;;;;2.08;1.10;;;21.20;99.90;;;;;;4992356;28;20100;-41
2023/08/27 12:09:30;;;;;;;1.30;0.90;;;21.20;99.90;;;;;;4992455;28;20065;-41
2023/08/27 12:12:07;;;;;;;2.15;1.02;;;21.20;99.90;;;;;;4992220;28;20041;-39
2023/08/27 12:14:34;;;;;;;1.90;1.20;;;21.20;99.90;;;;;;4992233;28;20362;-38
2023/08/27 12:17:11;;;;;;;2.15;0.90;;;21.30;99.90;;;;;;4992161;28;20599;-39
2023/08/27 12:19:43;;;;;;;1.38;1.08;;;21.20;99.90;;;;;;4991761;28;20033;-39
2023/08/27 12:22:14;;;;;;;1.80;1.13;;;21.20;99.90;;;;;;4992077;28;20026;-39
2023/08/27 12:24:42;;;;;;;1.35;1.08;;;21.20;99.90;;;;;;4992065;28;20102;-38
2023/08/27 12:27:19;;;;;;;1.30;1.02;;;21.30;99.90;;;;;;4990600;28;20400;-38
2023/08/27 12:29:46;;;;;;;2.15;1.08;;;21.30;99.90;;;;;;4991794;28;20554;-38
2023/08/27 12:32:17;;;;;;;1.73;1.08;;;21.30;99.90;;;;;;4991878;28;20054;-39
2023/08/27 12:34:47;;;;;;;1.40;1.00;;;21.20;99.90;;;;;;4991901;28;20491;-40
2023/08/27 12:37:15;;;;;;;1.40;1.00;;;21.20;99.90;;;;;;4991707;28;20033;-40
2023/08/27 12:39:41;;;;;;;1.85;0.90;;;21.20;99.90;;;;;;4991720;28;20030;-38
2023/08/27 12:42:08;;;;;;;1.67;1.13;;;21.30;99.90;;;;;;4991920;28;20036;-38
2023/08/27 12:44:35;;;;;;;1.25;0.98;;;21.20;99.90;;;;;;4991788;28;20444;-38
2023/08/27 12:47:02;;;;;;;1.42;1.00;;;21.30;99.90;;;;;;4991731;28;20469;-38
2023/08/27 12:49:28;;;;;;;1.83;0.93;;;21.20;99.90;;;;;;4991734;28;20039;-38